This is the latest recevied weather packets stored in our database for station/object W0SS-13. If no packets are shown the sender has not sent any weather packets the latest 10 day(s).
| Time | Temp. | Humidity | Pressure | Rain* | Wind** | Luminosity | Snow |
|---|---|---|---|---|---|---|---|
| 1777513626 | 11.11° C | 78% | 1019.6 hPa | 0 mm | - | 0 W/m² | - |
| 1777513323 | 11.11° C | 76% | 1019.6 hPa | 0 mm | - | 0 W/m² | - |
| 1777513018 | 11.67° C | 74% | 1019.5 hPa | 0 mm | - | 0 W/m² | - |
| 1777512715 | 11.67° C | 71% | 1019.5 hPa | 0 mm | - | 0 W/m² | - |
| 1777512412 | 12.78° C | 70% | 1019.3 hPa | 0 mm | - | 0 W/m² | - |
| 1777512109 | 12.78° C | 68% | 1019.5 hPa | 0 mm | - | 1 W/m² | - |
| 1777511807 | 12.78° C | 67% | 1019.4 hPa | 0 mm | - | 2 W/m² | - |
| 1777511503 | 13.33° C | 68% | 1019.2 hPa | 0 mm | - | 3 W/m² | - |
| 1777510593 | 15° C | 63% | 1019.3 hPa | 0 mm | - | 14 W/m² | - |
| 1777510289 | 15.56° C | 60% | 1019.3 hPa | 0 mm | - | 17 W/m² | - |
| 1777508470 | 15° C | 58% | 1019.2 hPa | 0 mm | - | 52 W/m² | - |
| 1777507863 | 14.44° C | 58% | 1019 hPa | 0 mm | - | 58 W/m² | - |
| 1777507561 | 14.44° C | 58% | 1019.1 hPa | 0 mm | - | 59 W/m² | - |
| 1777507257 | 14.44° C | 57% | 1019 hPa | 0 mm | - | 59 W/m² | - |
| 1777506955 | 14.44° C | 57% | 1019 hPa | 0 mm | - | 58 W/m² | - |
| 1777506044 | 15° C | 55% | 1019 hPa | 0 mm | - | 67 W/m² | - |
| 1777505739 | 15° C | 56% | 1019 hPa | 0 mm | - | 73 W/m² | - |
| 1777500586 | 16.11° C | 53% | 1018.9 hPa | 0 mm | - | 423 W/m² | - |
| 1777498464 | 15° C | 56% | 1019.5 hPa | 0 mm | - | 196 W/m² | - |
| 1777497858 | 15° C | 55% | 1019.3 hPa | 0 mm | - | 249 W/m² | - |
| 1777497554 | 15° C | 57% | 1019.3 hPa | 0 mm | - | 273 W/m² | - |
| 1777496946 | 15° C | 54% | 1019.4 hPa | 0 mm | - | 475 W/m² | - |
| 1777496644 | 15° C | 55% | 1019.6 hPa | 0 mm | - | 360 W/m² | - |
| 1777496340 | 15.56° C | 53% | 1019.8 hPa | 0 mm | - | 365 W/m² | - |
| 1777496036 | 15.56° C | 54% | 1019.8 hPa | 0 mm | - | 475 W/m² | - |
* Rain latest hour (hover to see other rain measurements)
** Current wind speed in m/s (hover to see current wind gust speed)